Flight Track Log - Related Links

Times and Time Zones

All times are in EDT time to prevent confusion due to time zone crossing. See the UPS1122 flight status page for this flight to view local times or setup timezone preferences in your user account.

Time Position Orientation Groundspeed Altitude Reporting Facility
EDT Latitude Longitude Course Direction KTS MPH feet Rate Location/Type
Thu 03:55:43 AM 39.8622 -75.2667 242° Southwest 161 185 1,000  Level FAA TRACON SMA TRACON (SMA)
Thu 03:56:04 AM 39.8547 -75.2853 242° Southwest 157 181 1,900 2,250 Climbing FAA TRACON SMA TRACON (SMA)
Thu 03:56:23 AM 39.8458 -75.3025 236° Southwest 189 217 2,500 2,700 Climbing FAA TRACON SMA TRACON (SMA)
Thu 03:56:44 AM 39.8336 -75.3264 236° Southwest 210 242 3,700 3,366 Climbing FAA TRACON SMA TRACON (SMA)
Thu 03:57:04 AM 39.8167 -75.3406 213° Southwest 234 269 4,800 3,450 Climbing FAA TRACON SMA TRACON (SMA)
Thu 03:57:24 AM 39.7964 -75.3417 182° South 249 287 6,000 4,308 Climbing FAA TRACON SMA TRACON (SMA)
Thu 03:57:43 AM 39.7744 -75.3217 145° Southeast 263 303 7,600 4,308 Climbing FAA TRACON SMA TRACON (SMA)
Thu 03:58:03 AM 39.7664 -75.2953 112° Southeast 293 337 8,800 3,600 Climbing FAA TRACON SMA TRACON (SMA)
Thu 03:58:23 AM 39.7644 -75.2606 94° East 300 345 10,000 3,600 Climbing FAA TRACON SMA TRACON (SMA)
Thu 03:58:43 AM 39.7672 -75.2164 85° East 319 367 11,200 2,488 Climbing FAA TRACON SMA TRACON (SMA)
Thu 03:59:04 AM 39.7697 -75.1806 85° East 329 379 11,700 900 Climbing FAA TRACON SMA TRACON (SMA)
Thu 03:59:23 AM 39.7714 -75.1400 87° East 375 432 11,800 308 Climbing FAA TRACON SMA TRACON (SMA)
Thu 03:59:43 AM 39.7744 -75.0867 86° East 413 475 11,900 146 Climbing FAA TRACON SMA TRACON (SMA)
Thu 04:00:04 AM 39.7769 -75.0406 86° East 418 481 11,900  Level FAA TRACON SMA TRACON (SMA)
Thu 04:00:23 AM 39.7794 -74.9914 86° East 417 480 11,900  Level FAA TRACON SMA TRACON (SMA)
Thu 04:00:44 AM 39.7825 -74.9344 86° East 423 487 11,900  Level FAA TRACON SMA TRACON (SMA)
Thu 04:01:03 AM 39.7853 -74.8878 86° East 422 486 11,900 615 Level FAA TRACON SMA TRACON (SMA)
Thu 04:01:23 AM 39.7903 -74.8314 83° East 419 482 12,300 2,049 Climbing FAA TRACON SMA TRACON (SMA)
Thu 04:01:44 AM 39.8014 -74.7872 72° East 415 478 13,300 2,927 Climbing FAA TRACON SMA TRACON (SMA)
Thu 04:02:04 AM 39.8194 -74.7458 60° Northeast 425 489 14,300 3,150 Climbing FAA TRACON SMA TRACON (SMA)
Thu 04:02:24 AM 39.8494 -74.7003 49° Northeast 439 505 15,400 3,231 Climbing FAA TRACON SMA TRACON (SMA)
Thu 04:02:43 AM 39.8753 -74.6628 48° Northeast 444 511 16,400 3,000 Climbing FAA TRACON SMA TRACON (SMA)
Thu 04:03:04 AM 39.8992 -74.6267 49° Northeast 445 512 17,400 2,700 Climbing FAA TRACON SMA TRACON (SMA)
Thu 04:03:23 AM 39.9256 -74.5897 47° Northeast 450 518 18,200 814 Climbing FAA TRACON SMA TRACON (SMA)
Thu 04:04:03 AM 39.9256 -74.5897 201° Southwest 450 518 18,200 2,074 Level FAA TRACON SMA TRACON (SMA)
Thu 04:05:39 AM 40.1189 -74.3050 48° Northeast 468 539 22,900 1,834 Climbing New York Center
Thu 04:06:40 AM 40.2106 -74.1736 48° Northeast 480 552 23,000 50 Climbing New York Center
Thu 04:07:39 AM 40.3061 -74.0314 49° Northeast 496 571 23,000  Level New York Center
Thu 04:08:40 AM 40.4058 -73.8864 48° Northeast 517 595 23,000  Level New York Center
Thu 04:11:04 AM 40.6692 -73.5811 41° Northeast 519 597 23,000  Level Boston Center
Thu 04:12:04 AM 40.8011 -73.4956 26° Northeast 519 597 23,000  Level Boston Center
Thu 04:13:04 AM 40.9311 -73.4072 27° Northeast 519 597 23,000 -1,000 Level Boston Center
Thu 04:14:04 AM 41.0589 -73.3236 26° Northeast 514 592 21,000 -2,200 Descending Boston Center
Thu 04:15:04 AM 41.1847 -73.2344 28° Northeast 509 586 18,600 -2,800 Descending Boston Center
Thu 04:16:04 AM 41.3144 -73.1447 27° Northeast 491 565 15,400 -3,440 Descending Boston Center
Thu 04:16:19 AM 41.3481 -73.1203 29° Northeast 487 560 14,300 -3,700 Descending Boston Center
Thu 04:17:04 AM 41.4275 -73.0547 32° Northeast 473 544 11,700 -3,100 Descending Boston Center
Thu 04:17:19 AM 41.4506 -73.0272 42° Northeast 447 514 11,200 -1,184 Descending Boston Center
Thu 04:18:20 AM 41.5261 -72.9197 47° Northeast 391 450 10,200 -1,426 Descending Boston Center
Thu 04:19:21 AM 41.5892 -72.8286 47° Northeast 339 390 8,300 -2,033 Descending Boston Center
Thu 04:20:21 AM 41.6539 -72.7344 47° Northeast 323 372 6,100 -1,884 Descending Boston Center
Thu 04:21:22 AM 41.7061 -72.6486 51° Northeast 307 353 4,500 -1,537 Descending Boston Center
Thu 04:22:22 AM 41.7564 -72.5764 47° Northeast 253 291 3,000 -992 Descending Boston Center
Thu 04:23:23 AM 41.8022 -72.5292 38° Northeast 203 234 2,500 -246 Descending Boston Center
Thu 04:24:24 AM 41.8397 -72.5600 329° Northwest 152 175 2,500 -248 Level Boston Center
Thu 04:25:24 AM 41.8667 -72.5989 313° West 143 165 2,000 -545 Descending Boston Center
Thu 04:26:25 AM 41.8856 -72.6269 312° West 112 129 1,400 -595 Descending Boston Center
Thu 04:27:25 AM 41.9042 -72.6519 315° West 102 117 800 -600 Descending Boston Center
Thu 04:29:00 AM 41.9333 -72.6833 317° Northwest  Level FlightAware Approximate
Thu 04:36:00 AM 41.9392 -72.6834 317° Northwest  Level Estimated
Thu 04:37:00 AM 41.9333 -72.6833 317° Northwest  Level FlightAware Approximate
Thu 04:38:00 AM 41.9392 -72.6834 317° Northwest  Level Estimated
Thu 04:39:00 AM 41.9333 -72.6833 317° Northwest  Level FlightAware Approximate

Login

Don't have an account? Register now (free) for customized features, flight alerts, and more!